createdAt,value
2022-09-28T00:01:00.555Z,97233.91
2022-09-28T00:04:17.442Z,97236.36
2022-09-28T00:07:34.025Z,97231.39
2022-09-28T00:10:50.077Z,97227.15
2022-09-28T00:14:08.901Z,97224.69
2022-09-28T00:17:26.615Z,97231.71
2022-09-28T00:20:43.192Z,97231.56
2022-09-28T00:24:18.587Z,97229.80
2022-09-28T00:27:34.587Z,97230.91
2022-09-28T00:30:50.582Z,97226.48
2022-09-28T00:34:07.757Z,97229.55
2022-09-28T00:37:24.578Z,97224.33
2022-09-28T00:40:41.434Z,97228.66
2022-09-28T00:43:57.600Z,97225.05
2022-09-28T00:50:34.785Z,97227.90
2022-09-28T00:53:52.104Z,97225.85
2022-09-28T00:57:10.734Z,97224.38
2022-09-28T01:00:29.945Z,97227.86
2022-09-28T01:03:46.107Z,97219.08
2022-09-28T01:07:03.575Z,97216.27
2022-09-28T01:10:19.985Z,97214.05
2022-09-28T01:13:38.447Z,97207.72
2022-09-28T01:17:01.023Z,97217.95
2022-09-28T01:20:52.081Z,97221.99
2022-09-28T01:24:36.030Z,97215.06
2022-09-28T01:27:56.284Z,97227.48
2022-09-28T01:34:41.061Z,97227.94
2022-09-28T01:38:01.702Z,97217.34
2022-09-28T01:41:19.629Z,97217.56
2022-09-28T01:44:40.663Z,97223.89
2022-09-28T01:51:17.558Z,97229.12
2022-09-28T01:54:38.390Z,97232.40
2022-09-28T01:57:58.591Z,97237.47
2022-09-28T02:01:19.666Z,97235.66
2022-09-28T02:04:41.585Z,97238.65
2022-09-28T02:08:01.879Z,97240.08
2022-09-28T02:11:22.538Z,97240.08
2022-09-28T02:14:41.718Z,97252.08
2022-09-28T02:17:58.344Z,97243.91
2022-09-28T02:21:21.120Z,97246.48
2022-09-28T02:24:43.827Z,97248.11
2022-09-28T02:28:05.775Z,97250.61
2022-09-28T02:31:22.043Z,97252.61
2022-09-28T02:34:38.244Z,97253.41
2022-09-28T02:37:55.640Z,97256.29
2022-09-28T02:41:20.146Z,97255.11
2022-09-28T02:44:51.411Z,97258.41
2022-09-28T02:48:19.136Z,97256.02
2022-09-28T02:51:41.092Z,97262.61
2022-09-28T02:55:23.649Z,97264.11
2022-09-28T02:58:48.728Z,97263.80
2022-09-28T03:02:09.480Z,97257.95
2022-09-28T03:05:31.348Z,97265.34
2022-09-28T03:08:52.776Z,97256.80
2022-09-28T03:12:15.218Z,97261.31
2022-09-28T03:15:35.099Z,97254.84
2022-09-28T03:18:49.113Z,97256.31
2022-09-28T03:22:06.377Z,97259.25
2022-09-28T03:25:22.819Z,97256.27
2022-09-28T03:28:39.048Z,97263.63
2022-09-28T03:31:55.967Z,97259.58
2022-09-28T03:35:13.782Z,97254.77
2022-09-28T03:38:30.439Z,97258.83
2022-09-28T03:41:49.488Z,97258.83
2022-09-28T03:45:06.119Z,97251.73
2022-09-28T03:48:25.781Z,97260.31
2022-09-28T03:51:40.127Z,97267.84
2022-09-28T03:54:57.321Z,97274.95
2022-09-28T03:58:13.393Z,97272.73
2022-09-28T04:07:09.467Z,97266.08
2022-09-28T04:10:25.874Z,97264.45
2022-09-28T04:13:42.383Z,97269.73
2022-09-28T04:20:18.556Z,97272.58
2022-09-28T04:23:37.743Z,97268.73
2022-09-28T04:26:55.843Z,97266.91
2022-09-28T04:30:13.119Z,97269.94
2022-09-28T04:33:30.743Z,97277.66
2022-09-28T04:36:46.831Z,97267.52
2022-09-28T04:40:03.050Z,97272.98
2022-09-28T04:43:20.269Z,97272.78
2022-09-28T04:46:44.167Z,97270.97
2022-09-28T04:50:19.056Z,97286.99
2022-09-28T04:53:42.942Z,97278.86
2022-09-28T04:56:59.297Z,97277.66
2022-09-28T05:00:19.062Z,97278.06
2022-09-28T05:03:37.024Z,97289.45
2022-09-28T05:06:54.840Z,97291.66
2022-09-28T05:10:13.216Z,97290.27
2022-09-28T05:13:29.505Z,97300.02
2022-09-28T05:16:45.701Z,97302.86
2022-09-28T05:20:06.945Z,97296.34
2022-09-28T05:23:23.446Z,97299.22
2022-09-28T05:26:41.222Z,97299.21
2022-09-28T05:29:58.568Z,97289.05
2022-09-28T05:33:14.962Z,97294.12
2022-09-28T05:36:33.388Z,97293.50
2022-09-28T05:39:49.902Z,97292.89
2022-09-28T05:43:10.277Z,97287.98
2022-09-28T05:46:27.142Z,97290.23
2022-09-28T05:53:09.294Z,97301.97
2022-09-28T05:56:26.029Z,97311.50
2022-09-28T05:59:42.272Z,97303.14
2022-09-28T06:03:09.682Z,97305.74
2022-09-28T06:06:25.919Z,97301.42
2022-09-28T06:09:42.761Z,97308.07
2022-09-28T06:13:05.254Z,97302.95
2022-09-28T06:16:25.493Z,97302.91
2022-09-28T06:19:42.037Z,97303.10
2022-09-28T06:23:15.597Z,97306.89
2022-09-28T06:26:31.789Z,97301.76
2022-09-28T06:29:47.967Z,97306.86
2022-09-28T06:36:20.121Z,97319.59
2022-09-28T06:39:38.047Z,97317.12
2022-09-28T06:43:01.980Z,97312.65
2022-09-28T06:46:20.076Z,97310.52
2022-09-28T06:52:57.954Z,97301.56
2022-09-28T06:56:33.032Z,97305.83
2022-09-28T06:59:50.836Z,97301.48
2022-09-28T07:03:07.073Z,97317.37
2022-09-28T07:06:29.629Z,97322.92
2022-09-28T07:09:55.242Z,97330.55
2022-09-28T07:13:40.873Z,97339.22
2022-09-28T07:16:58.306Z,97346.38
2022-09-28T07:19:53.361Z,97353.98
2022-09-28T07:23:19.573Z,97343.42
2022-09-28T07:26:38.322Z,97343.88
2022-09-28T07:30:03.528Z,97344.50
2022-09-28T07:36:40.137Z,97346.42
2022-09-28T07:40:10.526Z,97352.23
2022-09-28T07:43:28.034Z,97348.23
2022-09-28T07:46:44.986Z,97352.41
2022-09-28T07:50:06.911Z,97343.63
2022-09-28T07:53:37.129Z,97343.59
2022-09-28T07:56:57.643Z,97350.45
2022-09-28T08:00:15.591Z,97344.99
2022-09-28T08:03:43.733Z,97339.63
2022-09-28T08:07:00.555Z,97337.83
2022-09-28T08:10:19.189Z,97331.52
2022-09-28T08:13:39.539Z,97336.11
2022-09-28T08:17:06.524Z,97323.65
2022-09-28T08:20:46.994Z,97328.84
2022-09-28T08:24:04.019Z,97328.25
2022-09-28T08:27:21.230Z,97326.31
2022-09-28T08:30:37.678Z,97325.44
2022-09-28T08:37:27.581Z,97323.43
2022-09-28T08:41:11.130Z,97322.58
2022-09-28T08:44:50.765Z,97324.27
2022-09-28T08:48:28.556Z,97329.64
2022-09-28T09:26:24.709Z,97325.35
2022-09-28T09:29:53.711Z,97324.43
2022-09-28T09:33:43.949Z,97313.08
2022-09-28T09:37:18.704Z,97322.20
2022-09-28T09:40:53.553Z,97319.33
2022-09-28T09:44:52.836Z,97326.78
2022-09-28T09:48:19.750Z,97333.80
2022-09-28T09:51:41.891Z,97333.58
2022-09-28T09:55:03.415Z,97328.04
2022-09-28T09:58:25.911Z,97334.36
2022-09-28T10:01:46.807Z,97328.30
2022-09-28T10:08:29.334Z,97316.33
2022-09-28T10:11:52.881Z,97316.65
2022-09-28T10:15:14.732Z,97307.98
2022-09-28T10:18:33.068Z,97316.64
2022-09-28T10:21:53.842Z,97305.25
2022-09-28T10:25:13.894Z,97305.55
2022-09-28T10:28:40.439Z,97314.72
2022-09-28T10:31:59.011Z,97298.43
2022-09-28T10:35:33.075Z,97303.28
2022-09-28T10:38:55.166Z,97309.44
2022-09-28T10:42:18.338Z,97306.61
2022-09-28T10:45:39.483Z,97301.77
2022-09-28T10:49:04.097Z,97295.36
2022-09-28T10:52:47.102Z,97288.95
2022-09-28T10:56:16.773Z,97287.18
2022-09-28T10:59:49.687Z,97278.41
2022-09-28T11:03:11.537Z,97277.97
2022-09-28T11:06:36.944Z,97268.73
2022-09-28T11:09:57.053Z,97280.72
2022-09-28T11:13:18.352Z,97267.14
2022-09-28T11:16:38.877Z,97258.84
2022-09-28T11:19:53.290Z,97248.02
2022-09-28T11:23:24.916Z,97247.80
2022-09-28T11:26:49.192Z,97245.35
2022-09-28T11:30:12.626Z,97236.02
2022-09-28T11:40:10.825Z,97232.78
2022-09-28T11:43:35.188Z,97219.56
2022-09-28T11:46:58.093Z,97226.53
2022-09-28T11:50:24.862Z,97213.50
2022-09-28T11:53:44.885Z,97208.00
2022-09-28T11:57:01.584Z,97202.19
2022-09-28T12:00:24.358Z,97200.28
2022-09-28T12:03:47.811Z,97190.41
2022-09-28T12:07:09.318Z,97192.84
2022-09-28T12:10:32.732Z,97185.36
2022-09-28T12:13:53.093Z,97185.13
2022-09-28T12:17:19.252Z,97179.02
2022-09-28T12:20:36.594Z,97178.52
2022-09-28T12:23:54.622Z,97177.19
2022-09-28T12:27:17.395Z,97171.81
2022-09-28T12:30:36.654Z,97170.98
2022-09-28T12:33:56.864Z,97171.28
2022-09-28T12:37:37.797Z,97173.16
2022-09-28T12:41:01.978Z,97164.88
2022-09-28T12:44:42.560Z,97156.58
2022-09-28T12:48:40.289Z,97159.02
2022-09-28T12:52:02.226Z,97152.84
2022-09-28T12:55:44.682Z,97135.19
2022-09-28T12:59:12.078Z,97139.45
2022-09-28T13:02:46.960Z,97143.47
2022-09-28T13:06:37.911Z,97145.36
2022-09-28T13:10:03.600Z,97136.27
2022-09-28T13:13:37.458Z,97151.69
2022-09-28T13:17:00.626Z,97152.97
2022-09-28T13:20:31.031Z,97148.95
2022-09-28T13:23:50.597Z,97140.36
2022-09-28T13:27:11.920Z,97139.52
2022-09-28T13:30:28.480Z,97133.31
2022-09-28T13:37:29.012Z,97128.78
2022-09-28T13:41:18.859Z,97131.20
2022-09-28T13:45:21.046Z,97124.23
2022-09-28T13:52:08.150Z,97106.58
2022-09-28T13:55:33.722Z,97108.16
2022-09-28T13:58:53.640Z,97127.08
2022-09-28T14:02:18.673Z,97126.08
2022-09-28T14:09:50.671Z,97132.62
2022-09-28T14:13:08.781Z,97137.92
2022-09-28T14:16:35.803Z,97138.70
2022-09-28T14:19:55.165Z,97135.67
2022-09-28T14:23:46.704Z,97128.88
2022-09-28T14:27:42.547Z,97136.25
2022-09-28T14:31:02.132Z,97129.80
2022-09-28T14:37:52.893Z,97109.15
2022-09-28T14:41:15.927Z,97115.14
2022-09-28T14:44:32.605Z,97114.88
2022-09-28T14:47:53.184Z,97103.89
2022-09-28T14:51:42.720Z,97106.61
2022-09-28T14:55:05.114Z,97108.80
2022-09-28T14:58:28.256Z,97099.43
2022-09-28T15:01:46.875Z,97104.46
2022-09-28T15:05:08.525Z,97107.13
2022-09-28T15:08:29.066Z,97098.86
2022-09-28T15:11:47.672Z,97101.00
2022-09-28T15:15:09.198Z,97110.31
2022-09-28T15:19:08.577Z,97114.03
2022-09-28T15:22:26.885Z,97110.55
2022-09-28T15:25:45.347Z,97104.36
2022-09-28T15:29:03.980Z,97113.05
2022-09-28T15:32:34.963Z,97114.63
2022-09-28T15:35:53.930Z,97112.01
2022-09-28T15:39:16.600Z,97106.47
2022-09-28T15:42:33.035Z,97104.36
2022-09-28T15:45:53.036Z,97107.03
2022-09-28T15:52:44.920Z,97113.42
2022-09-28T15:56:09.249Z,97104.98
2022-09-28T15:59:36.456Z,97111.37
2022-09-28T16:03:09.586Z,97108.70
2022-09-28T16:06:26.583Z,97106.56
2022-09-28T16:09:47.928Z,97105.82
2022-09-28T16:13:17.627Z,97108.48
2022-09-28T16:16:46.259Z,97109.84
2022-09-28T16:20:01.805Z,97112.26
2022-09-28T16:23:34.188Z,97107.44
2022-09-28T16:26:50.788Z,97112.26
2022-09-28T16:30:26.884Z,97107.70
2022-09-28T16:38:56.144Z,97109.80
2022-09-28T16:42:19.292Z,97103.10
2022-09-28T16:45:36.138Z,97096.71
2022-09-28T16:48:57.430Z,97109.54
2022-09-28T16:52:19.041Z,97107.17
2022-09-28T16:55:40.708Z,97110.11
2022-09-28T16:58:56.055Z,97117.55
2022-09-28T17:02:44.967Z,97113.27
2022-09-28T17:05:49.335Z,97109.49
2022-09-28T17:09:08.042Z,97110.85
2022-09-28T17:12:29.949Z,97113.21
2022-09-28T17:15:48.006Z,97116.45
2022-09-28T17:22:20.252Z,97107.64
2022-09-28T17:25:37.209Z,97110.55
2022-09-28T17:28:54.457Z,97111.01
2022-09-28T17:32:14.650Z,97111.80
2022-09-28T17:35:31.128Z,97125.14
2022-09-28T17:38:47.960Z,97118.76
2022-09-28T17:42:06.035Z,97123.84
2022-09-28T17:45:23.803Z,97115.27
2022-09-28T17:48:39.968Z,97119.50
2022-09-28T17:51:56.083Z,97117.39
2022-09-28T17:55:13.466Z,97117.88
2022-09-28T17:58:30.882Z,97124.84
2022-09-28T18:01:49.544Z,97131.73
2022-09-28T18:05:05.936Z,97130.69
2022-09-28T18:08:27.018Z,97137.87
2022-09-28T18:11:46.295Z,97135.70
2022-09-28T18:15:04.642Z,97135.45
2022-09-28T18:18:23.464Z,97148.69
2022-09-28T18:24:58.002Z,97147.32
2022-09-28T18:28:14.158Z,97151.26
2022-09-28T18:31:32.144Z,97157.16
2022-09-28T18:34:48.891Z,97161.36
2022-09-28T18:38:06.216Z,97162.50
2022-09-28T18:41:24.157Z,97159.74
2022-09-28T18:44:41.137Z,97163.97
2022-09-28T18:47:57.733Z,97165.59
2022-09-28T18:51:18.049Z,97172.22
2022-09-28T18:54:34.443Z,97175.69
2022-09-28T18:57:50.644Z,97182.06
2022-09-28T19:01:28.541Z,97195.15
2022-09-28T19:04:27.610Z,97194.30
2022-09-28T19:07:45.733Z,97194.55
2022-09-28T19:11:12.687Z,97195.27
2022-09-28T19:14:29.416Z,97195.84
2022-09-28T19:17:47.610Z,97192.86
2022-09-28T19:24:22.343Z,97200.22
2022-09-28T19:27:38.661Z,97203.14
2022-09-28T19:37:36.262Z,97201.34
2022-09-28T19:40:53.047Z,97214.45
2022-09-28T19:44:14.400Z,97215.97
2022-09-28T19:47:30.379Z,97218.56
2022-09-28T19:50:47.146Z,97213.48
2022-09-28T19:54:03.168Z,97207.35
2022-09-28T19:57:20.691Z,97208.55
2022-09-28T20:00:37.385Z,97207.09
2022-09-28T20:03:53.825Z,97209.43
2022-09-28T20:07:10.355Z,97208.89
2022-09-28T20:10:26.541Z,97207.19
2022-09-28T20:13:44.833Z,97195.21
2022-09-28T20:17:01.055Z,97213.69
2022-09-28T20:20:20.013Z,97215.69
2022-09-28T20:23:37.054Z,97222.45
2022-09-28T20:26:54.068Z,97219.91
2022-09-28T20:30:11.842Z,97229.98
2022-09-28T20:33:29.051Z,97231.15
2022-09-28T20:36:45.519Z,97250.17
2022-09-28T20:40:01.764Z,97254.23
2022-09-28T20:43:18.668Z,97255.52
2022-09-28T20:46:35.626Z,97269.41
2022-09-28T20:53:08.487Z,97290.35
2022-09-28T20:56:27.802Z,97287.93
2022-09-28T20:59:44.026Z,97276.11
2022-09-28T21:03:02.720Z,97263.53
2022-09-28T21:06:19.554Z,97269.78
2022-09-28T21:09:35.656Z,97275.11
2022-09-28T21:12:54.033Z,97282.39
2022-09-28T21:16:13.434Z,97274.41
2022-09-28T21:19:30.940Z,97274.98
2022-09-28T21:22:46.957Z,97265.41
2022-09-28T21:26:22.594Z,97263.55
2022-09-28T21:29:40.044Z,97259.51
2022-09-28T21:32:56.082Z,97266.10
2022-09-28T21:39:28.522Z,97281.02
2022-09-28T21:42:44.684Z,97279.40
2022-09-28T21:46:02.360Z,97277.20
2022-09-28T21:49:20.029Z,97274.43
2022-09-28T21:53:37.477Z,97270.03
2022-09-28T21:56:53.529Z,97269.92
2022-09-28T22:00:10.036Z,97277.55
2022-09-28T22:03:25.969Z,97281.35
2022-09-28T22:06:41.989Z,97287.50
2022-09-28T22:10:00.390Z,97293.38
2022-09-28T22:13:16.555Z,97295.00
2022-09-28T22:16:35.857Z,97298.81
2022-09-28T22:19:49.513Z,97305.52
2022-09-28T22:23:05.283Z,97313.49
2022-09-28T22:26:25.511Z,97322.74
2022-09-28T22:29:41.531Z,97319.28
2022-09-28T22:32:57.630Z,97323.80
2022-09-28T22:39:29.209Z,97327.47
2022-09-28T22:42:46.797Z,97327.94
2022-09-28T22:46:10.916Z,97334.09
2022-09-28T22:49:27.092Z,97330.60
2022-09-28T22:52:43.049Z,97332.91
2022-09-28T22:55:59.160Z,97338.23
2022-09-28T22:59:15.450Z,97336.39
2022-09-28T23:02:31.508Z,97332.11
2022-09-28T23:05:48.138Z,97339.14
2022-09-28T23:09:05.007Z,97337.19
2022-09-28T23:12:20.932Z,97336.70
2022-09-28T23:15:36.862Z,97337.94
2022-09-28T23:18:54.053Z,97343.38
2022-09-28T23:22:10.052Z,97343.73
2022-09-28T23:25:26.486Z,97340.61
2022-09-28T23:28:42.499Z,97346.86
2022-09-28T23:32:00.963Z,97349.16
2022-09-28T23:35:18.435Z,97349.52
2022-09-28T23:38:34.571Z,97350.67
2022-09-28T23:41:51.128Z,97352.30
2022-09-28T23:45:07.595Z,97352.17
2022-09-28T23:48:23.884Z,97356.66
2022-09-28T23:51:39.897Z,97355.27
2022-09-28T23:54:55.891Z,97361.05
2022-09-28T23:58:11.933Z,97347.60
